sensor_id;sensor_type;location;lat;lon;timestamp;pressure;altitude;pressure_sealevel;temperature;humidity
42001;BME280;27689;48.390;10.856;2022-10-16T00:00:55;96144.03;;;13.61;100.00
42001;BME280;27689;48.390;10.856;2022-10-16T00:03:40;96145.19;;;13.58;100.00
42001;BME280;27689;48.390;10.856;2022-10-16T00:06:25;96148.31;;;13.54;100.00
42001;BME280;27689;48.390;10.856;2022-10-16T00:09:10;96147.47;;;13.53;100.00
42001;BME280;27689;48.390;10.856;2022-10-16T00:11:54;96154.22;;;13.56;100.00
42001;BME280;27689;48.390;10.856;2022-10-16T00:14:38;96148.31;;;13.54;100.00
42001;BME280;27689;48.390;10.856;2022-10-16T00:17:25;96142.56;;;13.50;100.00
42001;BME280;27689;48.390;10.856;2022-10-16T00:20:09;96148.16;;;13.47;100.00
42001;BME280;27689;48.390;10.856;2022-10-16T00:22:53;96142.53;;;13.42;100.00
42001;BME280;27689;48.390;10.856;2022-10-16T00:25:37;96158.34;;;13.42;100.00
42001;BME280;27689;48.390;10.856;2022-10-16T00:28:21;96157.34;;;13.43;100.00
42001;BME280;27689;48.390;10.856;2022-10-16T00:31:07;96151.25;;;13.43;100.00
42001;BME280;27689;48.390;10.856;2022-10-16T00:33:51;96157.34;;;13.43;100.00
42001;BME280;27689;48.390;10.856;2022-10-16T00:36:36;96151.75;;;13.46;100.00
42001;BME280;27689;48.390;10.856;2022-10-16T00:39:19;96145.69;;;13.46;100.00
42001;BME280;27689;48.390;10.856;2022-10-16T00:42:04;96157.53;;;13.50;100.00
42001;BME280;27689;48.390;10.856;2022-10-16T00:44:53;96164.09;;;13.54;100.00
42001;BME280;27689;48.390;10.856;2022-10-16T00:47:41;96172.66;;;13.56;100.00
42001;BME280;27689;48.390;10.856;2022-10-16T00:50:33;96172.97;;;13.53;100.00
42001;BME280;27689;48.390;10.856;2022-10-16T00:53:18;96163.78;;;13.49;100.00
42001;BME280;27689;48.390;10.856;2022-10-16T00:56:03;96168.06;;;13.50;100.00
42001;BME280;27689;48.390;10.856;2022-10-16T00:58:47;96163.09;;;13.38;100.00
42001;BME280;27689;48.390;10.856;2022-10-16T01:01:31;96173.63;;;13.30;100.00
42001;BME280;27689;48.390;10.856;2022-10-16T01:04:14;96171.16;;;13.29;100.00
42001;BME280;27689;48.390;10.856;2022-10-16T01:10:14;96153.53;;;13.21;100.00
42001;BME280;27689;48.390;10.856;2022-10-16T01:13:07;96152.69;;;13.21;100.00
42001;BME280;27689;48.390;10.856;2022-10-16T01:16:13;96146.47;;;13.22;100.00
42001;BME280;27689;48.390;10.856;2022-10-16T01:19:29;96156.97;;;13.22;100.00
42001;BME280;27689;48.390;10.856;2022-10-16T01:22:16;96153.22;;;13.24;100.00
42001;BME280;27689;48.390;10.856;2022-10-16T01:25:05;96145.47;;;13.23;100.00
42001;BME280;27689;48.390;10.856;2022-10-16T01:27:53;96138.25;;;13.25;100.00
42001;BME280;27689;48.390;10.856;2022-10-16T01:30:39;96143.19;;;13.28;100.00
42001;BME280;27689;48.390;10.856;2022-10-16T01:33:32;96159.28;;;13.25;100.00
42001;BME280;27689;48.390;10.856;2022-10-16T01:36:21;96159.97;;;13.27;100.00
42001;BME280;27689;48.390;10.856;2022-10-16T01:39:09;96155.38;;;13.29;100.00
42001;BME280;27689;48.390;10.856;2022-10-16T01:42:02;96154.69;;;13.27;100.00
42001;BME280;27689;48.390;10.856;2022-10-16T01:44:49;96145.47;;;13.23;100.00
42001;BME280;27689;48.390;10.856;2022-10-16T01:47:35;96146.47;;;13.30;100.00
42001;BME280;27689;48.390;10.856;2022-10-16T01:50:20;96149.44;;;13.27;100.00
42001;BME280;27689;48.390;10.856;2022-10-16T01:53:05;96145.63;;;13.21;100.00
42001;BME280;27689;48.390;10.856;2022-10-16T01:55:52;96139.91;;;13.18;100.00
42001;BME280;27689;48.390;10.856;2022-10-16T01:58:42;96146.06;;;13.08;100.00
42001;BME280;27689;48.390;10.856;2022-10-16T02:01:30;96150.66;;;13.06;100.00
42001;BME280;27689;48.390;10.856;2022-10-16T02:04:22;96155.28;;;13.04;100.00
42001;BME280;27689;48.390;10.856;2022-10-16T02:07:08;96163.47;;;12.93;100.00
42001;BME280;27689;48.390;10.856;2022-10-16T02:09:53;96162.47;;;12.94;100.00
42001;BME280;27689;48.390;10.856;2022-10-16T02:12:38;96174.13;;;12.92;100.00
42001;BME280;27689;48.390;10.856;2022-10-16T02:15:24;96160.84;;;12.93;100.00
42001;BME280;27689;48.390;10.856;2022-10-16T02:18:09;96157.38;;;12.93;100.00
42001;BME280;27689;48.390;10.856;2022-10-16T02:21:00;96161.00;;;12.92;100.00
42001;BME280;27689;48.390;10.856;2022-10-16T02:26:49;96159.84;;;12.86;100.00
42001;BME280;27689;48.390;10.856;2022-10-16T02:29:40;96161.50;;;12.87;100.00
42001;BME280;27689;48.390;10.856;2022-10-16T02:32:30;96155.72;;;12.84;100.00
42001;BME280;27689;48.390;10.856;2022-10-16T02:35:18;96148.50;;;12.86;100.00
42001;BME280;27689;48.390;10.856;2022-10-16T02:38:04;96159.19;;;12.92;100.00
42001;BME280;27689;48.390;10.856;2022-10-16T02:40:48;96158.03;;;12.95;100.00
42001;BME280;27689;48.390;10.856;2022-10-16T02:43:32;96170.22;;;12.96;100.00
42001;BME280;27689;48.390;10.856;2022-10-16T02:46:18;96173.66;;;12.96;100.00
42001;BME280;27689;48.390;10.856;2022-10-16T02:49:02;96165.94;;;12.95;100.00
42001;BME280;27689;48.390;10.856;2022-10-16T02:51:46;96172.03;;;12.95;100.00
42001;BME280;27689;48.390;10.856;2022-10-16T02:54:30;96181.41;;;12.98;100.00
42001;BME280;27689;48.390;10.856;2022-10-16T02:57:14;96175.97;;;12.99;100.00
42001;BME280;27689;48.390;10.856;2022-10-16T02:59:58;96182.72;;;13.02;100.00
42001;BME280;27689;48.390;10.856;2022-10-16T03:02:43;96176.50;;;13.03;100.00
42001;BME280;27689;48.390;10.856;2022-10-16T03:05:27;96173.03;;;13.02;100.00
42001;BME280;27689;48.390;10.856;2022-10-16T03:08:12;96178.13;;;13.04;100.00
42001;BME280;27689;48.390;10.856;2022-10-16T03:10:56;96185.69;;;13.07;100.00
42001;BME280;27689;48.390;10.856;2022-10-16T03:13:40;96184.03;;;13.06;100.00
42001;BME280;27689;48.390;10.856;2022-10-16T03:16:24;96185.53;;;13.08;100.00
42001;BME280;27689;48.390;10.856;2022-10-16T03:19:08;96182.91;;;13.08;100.00
42001;BME280;27689;48.390;10.856;2022-10-16T03:21:52;96175.50;;;13.12;100.00
42001;BME280;27689;48.390;10.856;2022-10-16T03:24:35;96185.88;;;13.14;100.00
42001;BME280;27689;48.390;10.856;2022-10-16T03:27:19;96192.81;;;13.15;100.00
42001;BME280;27689;48.390;10.856;2022-10-16T03:30:04;96176.34;;;13.13;100.00
42001;BME280;27689;48.390;10.856;2022-10-16T03:32:48;96190.03;;;13.16;100.00
42001;BME280;27689;48.390;10.856;2022-10-16T03:35:32;96186.91;;;13.21;100.00
42001;BME280;27689;48.390;10.856;2022-10-16T03:38:16;96195.31;;;13.24;100.00
42001;BME280;27689;48.390;10.856;2022-10-16T03:41:00;96173.75;;;13.21;100.00
42001;BME280;27689;48.390;10.856;2022-10-16T03:43:44;96176.88;;;13.24;100.00
42001;BME280;27689;48.390;10.856;2022-10-16T03:46:28;96173.94;;;13.27;100.00
42001;BME280;27689;48.390;10.856;2022-10-16T03:49:13;96176.09;;;13.32;100.00
42001;BME280;27689;48.390;10.856;2022-10-16T03:51:56;96171.16;;;13.29;100.00
42001;BME280;27689;48.390;10.856;2022-10-16T03:54:41;96185.44;;;13.26;100.00
42001;BME280;27689;48.390;10.856;2022-10-16T03:57:25;96167.84;;;13.27;100.00
42001;BME280;27689;48.390;10.856;2022-10-16T04:00:09;96179.88;;;13.29;100.00
42001;BME280;27689;48.390;10.856;2022-10-16T04:02:53;96181.19;;;13.33;100.00
42001;BME280;27689;48.390;10.856;2022-10-16T04:05:38;96191.06;;;13.31;100.00
42001;BME280;27689;48.390;10.856;2022-10-16T04:08:22;96197.16;;;13.32;100.00
42001;BME280;27689;48.390;10.856;2022-10-16T04:11:06;96190.22;;;13.31;100.00
42001;BME280;27689;48.390;10.856;2022-10-16T04:13:50;96185.78;;;13.31;100.00
42001;BME280;27689;48.390;10.856;2022-10-16T04:16:34;96192.03;;;13.30;100.00
42001;BME280;27689;48.390;10.856;2022-10-16T04:19:18;96192.88;;;13.31;100.00
42001;BME280;27689;48.390;10.856;2022-10-16T04:22:02;96190.53;;;13.28;100.00
42001;BME280;27689;48.390;10.856;2022-10-16T04:24:46;96182.97;;;13.25;100.00
42001;BME280;27689;48.390;10.856;2022-10-16T04:27:30;96169.66;;;13.18;100.00
42001;BME280;27689;48.390;10.856;2022-10-16T04:30:14;96187.25;;;13.26;100.00
42001;BME280;27689;48.390;10.856;2022-10-16T04:32:58;96181.16;;;13.25;100.00
42001;BME280;27689;48.390;10.856;2022-10-16T04:35:42;96182.00;;;13.26;100.00
42001;BME280;27689;48.390;10.856;2022-10-16T04:38:26;96183.78;;;13.25;100.00
42001;BME280;27689;48.390;10.856;2022-10-16T04:41:10;96178.22;;;13.20;100.00
42001;BME280;27689;48.390;10.856;2022-10-16T04:43:54;96182.81;;;13.18;100.00
42001;BME280;27689;48.390;10.856;2022-10-16T04:46:38;96181.16;;;13.17;100.00
42001;BME280;27689;48.390;10.856;2022-10-16T04:49:22;96182.97;;;13.17;100.00
42001;BME280;27689;48.390;10.856;2022-10-16T04:52:06;96189.22;;;13.16;100.00
42001;BME280;27689;48.390;10.856;2022-10-16T04:54:52;96192.44;;;13.10;100.00
42001;BME280;27689;48.390;10.856;2022-10-16T04:57:36;96195.22;;;13.08;100.00
42001;BME280;27689;48.390;10.856;2022-10-16T05:00:20;96197.03;;;13.07;100.00
42001;BME280;27689;48.390;10.856;2022-10-16T05:03:04;96196.56;;;13.04;100.00
42001;BME280;27689;48.390;10.856;2022-10-16T05:05:51;96192.28;;;13.03;100.00
42001;BME280;27689;48.390;10.856;2022-10-16T05:08:35;96191.59;;;13.01;100.00
42001;BME280;27689;48.390;10.856;2022-10-16T05:11:19;96191.41;;;12.94;100.00
42001;BME280;27689;48.390;10.856;2022-10-16T05:14:03;96195.34;;;12.90;100.00
42001;BME280;27689;48.390;10.856;2022-10-16T05:16:47;96189.59;;;12.87;100.00
42001;BME280;27689;48.390;10.856;2022-10-16T05:19:31;96193.88;;;12.88;100.00
42001;BME280;27689;48.390;10.856;2022-10-16T05:22:15;96192.22;;;12.87;100.00
42001;BME280;27689;48.390;10.856;2022-10-16T05:24:59;96189.53;;;12.79;100.00
42001;BME280;27689;48.390;10.856;2022-10-16T05:27:47;96203.66;;;12.78;100.00
42001;BME280;27689;48.390;10.856;2022-10-16T05:30:31;96200.88;;;12.79;100.00
42001;BME280;27689;48.390;10.856;2022-10-16T05:33:15;96201.72;;;12.80;100.00
42001;BME280;27689;48.390;10.856;2022-10-16T05:36:07;96206.28;;;12.78;100.00
42001;BME280;27689;48.390;10.856;2022-10-16T05:38:52;96211.06;;;12.74;100.00
42001;BME280;27689;48.390;10.856;2022-10-16T05:41:36;96212.88;;;12.74;100.00
42001;BME280;27689;48.390;10.856;2022-10-16T05:44:20;96220.91;;;12.72;100.00
42001;BME280;27689;48.390;10.856;2022-10-16T05:47:04;96230.94;;;12.77;100.00
42001;BME280;27689;48.390;10.856;2022-10-16T05:49:48;96235.34;;;12.68;100.00
42001;BME280;27689;48.390;10.856;2022-10-16T05:52:32;96232.34;;;12.63;100.00
42001;BME280;27689;48.390;10.856;2022-10-16T05:55:16;96237.28;;;12.66;100.00
42001;BME280;27689;48.390;10.856;2022-10-16T05:58:00;96233.03;;;12.65;100.00
42001;BME280;27689;48.390;10.856;2022-10-16T06:00:44;96242.25;;;12.69;100.00
42001;BME280;27689;48.390;10.856;2022-10-16T06:03:28;96243.91;;;12.70;100.00
42001;BME280;27689;48.390;10.856;2022-10-16T06:06:15;96243.91;;;12.70;100.00
42001;BME280;27689;48.390;10.856;2022-10-16T06:09:00;96241.13;;;12.71;100.00
42001;BME280;27689;48.390;10.856;2022-10-16T06:11:44;96246.56;;;12.78;100.00
42001;BME280;27689;48.390;10.856;2022-10-16T06:14:28;96253.28;;;12.73;100.00
42001;BME280;27689;48.390;10.856;2022-10-16T06:17:13;96250.50;;;12.74;100.00
42001;BME280;27689;48.390;10.856;2022-10-16T06:19:57;96251.31;;;12.75;100.00
42001;BME280;27689;48.390;10.856;2022-10-16T06:22:41;96254.44;;;12.78;100.00
42001;BME280;27689;48.390;10.856;2022-10-16T06:25:25;96254.13;;;12.81;100.00
42001;BME280;27689;48.390;10.856;2022-10-16T06:28:09;96260.44;;;12.88;100.00
42001;BME280;27689;48.390;10.856;2022-10-16T06:30:59;96254.50;;;12.86;100.00
42001;BME280;27689;48.390;10.856;2022-10-16T06:33:43;96263.91;;;12.97;100.00
42001;BME280;27689;48.390;10.856;2022-10-16T06:36:29;96265.91;;;13.03;100.00
42001;BME280;27689;48.390;10.856;2022-10-16T06:39:13;96260.97;;;13.08;100.00
42001;BME280;27689;48.390;10.856;2022-10-16T06:41:57;96263.31;;;13.11;100.00
42001;BME280;27689;48.390;10.856;2022-10-16T06:44:41;96272.41;;;13.17;100.00
42001;BME280;27689;48.390;10.856;2022-10-16T06:47:25;96270.94;;;13.22;100.00
42001;BME280;27689;48.390;10.856;2022-10-16T06:50:09;96281.00;;;13.27;100.00
42001;BME280;27689;48.390;10.856;2022-10-16T06:52:53;96279.69;;;13.31;100.00
42001;BME280;27689;48.390;10.856;2022-10-16T06:55:37;96287.13;;;13.35;100.00
42001;BME280;27689;48.390;10.856;2022-10-16T06:58:21;96296.16;;;13.41;100.00
42001;BME280;27689;48.390;10.856;2022-10-16T07:01:06;96296.53;;;13.46;100.00
42001;BME280;27689;48.390;10.856;2022-10-16T07:03:51;96298.16;;;13.47;100.00
42001;BME280;27689;48.390;10.856;2022-10-16T07:06:35;96297.66;;;13.52;100.00
42001;BME280;27689;48.390;10.856;2022-10-16T07:09:19;96310.03;;;13.59;100.00
42001;BME280;27689;48.390;10.856;2022-10-16T07:12:03;96315.81;;;13.71;100.00
42001;BME280;27689;48.390;10.856;2022-10-16T07:14:47;96314.38;;;13.85;100.00
42001;BME280;27689;48.390;10.856;2022-10-16T07:17:32;96310.13;;;14.00;100.00
42001;BME280;27689;48.390;10.856;2022-10-16T07:20:15;96318.03;;;14.08;100.00
42001;BME280;27689;48.390;10.856;2022-10-16T07:23:00;96318.03;;;14.16;100.00
42001;BME280;27689;48.390;10.856;2022-10-16T07:25:44;96310.63;;;14.28;100.00
42001;BME280;27689;48.390;10.856;2022-10-16T07:28:28;96318.56;;;14.44;100.00
42001;BME280;27689;48.390;10.856;2022-10-16T07:31:14;96325.78;;;14.58;100.00
42001;BME280;27689;48.390;10.856;2022-10-16T07:33:59;96315.41;;;14.73;100.00
42001;BME280;27689;48.390;10.856;2022-10-16T07:36:44;96323.97;;;14.83;100.00
42001;BME280;27689;48.390;10.856;2022-10-16T07:39:28;96326.22;;;15.02;100.00
42001;BME280;27689;48.390;10.856;2022-10-16T07:42:12;96319.94;;;15.11;100.00
42001;BME280;27689;48.390;10.856;2022-10-16T07:44:56;96330.44;;;15.28;100.00
42001;BME280;27689;48.390;10.856;2022-10-16T07:47:40;96333.81;;;15.44;99.26
42001;BME280;27689;48.390;10.856;2022-10-16T07:50:24;96333.78;;;15.61;100.00
42001;BME280;27689;48.390;10.856;2022-10-16T07:53:08;96340.94;;;15.83;95.71
42001;BME280;27689;48.390;10.856;2022-10-16T07:56:03;96340.69;;;16.01;96.63
42001;BME280;27689;48.390;10.856;2022-10-16T07:58:48;96341.03;;;16.20;96.39
42001;BME280;27689;48.390;10.856;2022-10-16T08:01:34;96349.31;;;16.40;94.55
42001;BME280;27689;48.390;10.856;2022-10-16T08:04:18;96350.97;;;16.64;92.35
42001;BME280;27689;48.390;10.856;2022-10-16T08:07:02;96338.97;;;16.76;89.88
42001;BME280;27689;48.390;10.856;2022-10-16T08:09:49;96355.69;;;16.77;89.54
42001;BME280;27689;48.390;10.856;2022-10-16T08:12:33;96348.25;;;16.72;90.65
42001;BME280;27689;48.390;10.856;2022-10-16T08:15:18;96356.47;;;16.77;91.68
42001;BME280;27689;48.390;10.856;2022-10-16T08:18:04;96358.41;;;16.83;91.53
42001;BME280;27689;48.390;10.856;2022-10-16T08:20:55;96353.84;;;16.92;93.52
42001;BME280;27689;48.390;10.856;2022-10-16T08:23:39;96349.66;;;16.98;94.81
42001;BME280;27689;48.390;10.856;2022-10-16T08:26:23;96353.50;;;17.10;94.30
42001;BME280;27689;48.390;10.856;2022-10-16T08:29:07;96356.09;;;17.33;94.70
42001;BME280;27689;48.390;10.856;2022-10-16T08:31:51;96352.44;;;17.63;88.11
42001;BME280;27689;48.390;10.856;2022-10-16T08:34:36;96353.66;;;17.96;87.70
42001;BME280;27689;48.390;10.856;2022-10-16T08:37:20;96368.22;;;18.22;88.87
42001;BME280;27689;48.390;10.856;2022-10-16T08:40:06;96363.38;;;18.47;89.74
42001;BME280;27689;48.390;10.856;2022-10-16T08:43:21;96358.59;;;18.78;82.84
42001;BME280;27689;48.390;10.856;2022-10-16T08:49:12;96363.41;;;19.52;82.39
42001;BME280;27689;48.390;10.856;2022-10-16T08:51:59;96369.72;;;19.92;80.86
42001;BME280;27689;48.390;10.856;2022-10-16T08:54:47;96372.88;;;20.22;79.40
42001;BME280;27689;48.390;10.856;2022-10-16T08:57:34;96373.41;;;20.45;78.08
42001;BME280;27689;48.390;10.856;2022-10-16T09:00:18;96380.38;;;20.46;74.92
42001;BME280;27689;48.390;10.856;2022-10-16T09:03:16;96384.88;;;20.52;76.77
42001;BME280;27689;48.390;10.856;2022-10-16T09:12:39;96386.34;;;20.94;73.09
42001;BME280;27689;48.390;10.856;2022-10-16T09:15:27;96388.41;;;21.05;69.55
42001;BME280;27689;48.390;10.856;2022-10-16T09:18:19;96383.06;;;21.12;69.10
42001;BME280;27689;48.390;10.856;2022-10-16T09:24:14;96393.94;;;21.24;68.96
42001;BME280;27689;48.390;10.856;2022-10-16T09:26:59;96393.34;;;21.28;69.30
42001;BME280;27689;48.390;10.856;2022-10-16T09:29:42;96396.19;;;21.27;66.19
42001;BME280;27689;48.390;10.856;2022-10-16T09:32:28;96394.75;;;21.18;64.39
42001;BME280;27689;48.390;10.856;2022-10-16T09:35:18;96405.00;;;21.14;64.87
42001;BME280;27689;48.390;10.856;2022-10-16T09:38:03;96406.22;;;21.18;65.83
42001;BME280;27689;48.390;10.856;2022-10-16T09:40:47;96404.00;;;21.28;65.63
42001;BME280;27689;48.390;10.856;2022-10-16T09:43:40;96398.88;;;21.27;62.98
42001;BME280;27689;48.390;10.856;2022-10-16T09:46:33;96403.59;;;21.31;66.17
42001;BME280;27689;48.390;10.856;2022-10-16T09:52:13;96399.91;;;21.32;64.14
42001;BME280;27689;48.390;10.856;2022-10-16T09:55:12;96397.66;;;21.36;64.96
42001;BME280;27689;48.390;10.856;2022-10-16T09:57:57;96402.16;;;21.29;64.99
42001;BME280;27689;48.390;10.856;2022-10-16T10:00:42;96414.03;;;21.33;65.83
42001;BME280;27689;48.390;10.856;2022-10-16T10:03:36;96410.13;;;21.42;66.54
42001;BME280;27689;48.390;10.856;2022-10-16T10:06:24;96412.63;;;21.37;64.50
42001;BME280;27689;48.390;10.856;2022-10-16T10:09:21;96410.75;;;21.31;62.90
42001;BME280;27689;48.390;10.856;2022-10-16T10:12:22;96416.91;;;21.31;62.63
42001;BME280;27689;48.390;10.856;2022-10-16T10:15:11;96409.91;;;21.43;63.45
42001;BME280;27689;48.390;10.856;2022-10-16T10:17:57;96407.25;;;21.50;61.77
42001;BME280;27689;48.390;10.856;2022-10-16T10:20:42;96402.09;;;21.55;62.25
42001;BME280;27689;48.390;10.856;2022-10-16T10:23:27;96403.75;;;21.63;62.72
42001;BME280;27689;48.390;10.856;2022-10-16T10:26:21;96405.34;;;21.70;63.14
42001;BME280;27689;48.390;10.856;2022-10-16T10:29:24;96404.13;;;21.73;62.99
42001;BME280;27689;48.390;10.856;2022-10-16T10:32:19;96411.25;;;21.86;62.29
42001;BME280;27689;48.390;10.856;2022-10-16T10:47:50;96420.00;;;22.26;62.30
42001;BME280;27689;48.390;10.856;2022-10-16T10:50:43;96418.88;;;22.40;59.98
42001;BME280;27689;48.390;10.856;2022-10-16T10:56:57;96414.72;;;22.50;61.76
42001;BME280;27689;48.390;10.856;2022-10-16T11:05:46;96411.75;;;22.65;57.43
42001;BME280;27689;48.390;10.856;2022-10-16T11:08:35;96403.13;;;22.63;57.19
42001;BME280;27689;48.390;10.856;2022-10-16T11:12:31;96405.00;;;22.56;57.34
42001;BME280;27689;48.390;10.856;2022-10-16T11:14:58;96400.47;;;22.63;55.68
42001;BME280;27689;48.390;10.856;2022-10-16T11:17:52;96402.91;;;22.65;56.98
42001;BME280;27689;48.390;10.856;2022-10-16T11:20:42;96404.66;;;22.52;55.28
42001;BME280;27689;48.390;10.856;2022-10-16T11:23:43;96400.94;;;22.54;56.39
42001;BME280;27689;48.390;10.856;2022-10-16T11:26:34;96399.25;;;22.59;56.81
42001;BME280;27689;48.390;10.856;2022-10-16T11:29:24;96407.03;;;22.61;56.98
42001;BME280;27689;48.390;10.856;2022-10-16T11:32:27;96398.81;;;22.62;58.15
42001;BME280;27689;48.390;10.856;2022-10-16T11:38:58;96402.44;;;22.74;57.83
42001;BME280;27689;48.390;10.856;2022-10-16T11:41:56;96401.69;;;22.67;57.65
42001;BME280;27689;48.390;10.856;2022-10-16T11:47:45;96390.19;;;22.67;57.89
42001;BME280;27689;48.390;10.856;2022-10-16T11:50:53;96391.53;;;22.76;58.83
42001;BME280;27689;48.390;10.856;2022-10-16T11:54:20;96379.81;;;22.83;60.52
42001;BME280;27689;48.390;10.856;2022-10-16T11:57:09;96384.66;;;22.93;57.55
42001;BME280;27689;48.390;10.856;2022-10-16T12:00:00;96378.94;;;22.90;57.42
42001;BME280;27689;48.390;10.856;2022-10-16T12:08:43;96384.88;;;22.92;57.93
42001;BME280;27689;48.390;10.856;2022-10-16T12:11:31;96380.53;;;22.97;59.79
42001;BME280;27689;48.390;10.856;2022-10-16T12:17:02;96370.59;;;23.47;57.81
42001;BME280;27689;48.390;10.856;2022-10-16T12:20:20;96373.34;;;23.84;55.51
42001;BME280;27689;48.390;10.856;2022-10-16T12:23:05;96371.31;;;23.98;50.59
42001;BME280;27689;48.390;10.856;2022-10-16T12:25:58;96363.94;;;24.11;52.05
42001;BME280;27689;48.390;10.856;2022-10-16T12:28:42;96360.50;;;24.22;50.15
42001;BME280;27689;48.390;10.856;2022-10-16T12:31:37;96369.06;;;24.13;50.02
42001;BME280;27689;48.390;10.856;2022-10-16T12:37:40;96374.44;;;24.31;50.67
42001;BME280;27689;48.390;10.856;2022-10-16T12:40:31;96374.47;;;24.43;48.68
42001;BME280;27689;48.390;10.856;2022-10-16T12:43:34;96376.13;;;24.55;48.75
42001;BME280;27689;48.390;10.856;2022-10-16T12:46:23;96377.03;;;24.49;47.09
42001;BME280;27689;48.390;10.856;2022-10-16T12:55:19;96382.81;;;24.35;46.30
42001;BME280;27689;48.390;10.856;2022-10-16T13:01:48;96384.53;;;24.11;47.77
42001;BME280;27689;48.390;10.856;2022-10-16T13:05:03;96383.66;;;24.17;48.78
42001;BME280;27689;48.390;10.856;2022-10-16T13:23:23;96382.56;;;23.88;50.01
42001;BME280;27689;48.390;10.856;2022-10-16T13:29:01;96395.63;;;23.96;49.02
42001;BME280;27689;48.390;10.856;2022-10-16T13:31:45;96388.25;;;23.91;49.12
42001;BME280;27689;48.390;10.856;2022-10-16T13:34:29;96393.53;;;23.80;49.49
42001;BME280;27689;48.390;10.856;2022-10-16T13:37:18;96385.59;;;23.73;49.16
42001;BME280;27689;48.390;10.856;2022-10-16T13:40:18;96387.91;;;23.70;49.36
42001;BME280;27689;48.390;10.856;2022-10-16T13:43:02;96384.91;;;23.60;52.61
42001;BME280;27689;48.390;10.856;2022-10-16T13:46:13;96394.00;;;23.59;50.17
42001;BME280;27689;48.390;10.856;2022-10-16T13:49:05;96385.38;;;23.57;50.62
42001;BME280;27689;48.390;10.856;2022-10-16T13:51:58;96397.34;;;23.47;49.17
42001;BME280;27689;48.390;10.856;2022-10-16T13:54:42;96389.53;;;23.46;48.97
42001;BME280;27689;48.390;10.856;2022-10-16T13:57:26;96387.16;;;23.38;50.26
42001;BME280;27689;48.390;10.856;2022-10-16T14:00:25;96393.94;;;23.40;51.05
42001;BME280;27689;48.390;10.856;2022-10-16T14:03:14;96392.88;;;23.41;50.89
42001;BME280;27689;48.390;10.856;2022-10-16T14:06:02;96398.25;;;23.41;50.24
42001;BME280;27689;48.390;10.856;2022-10-16T14:08:49;96397.47;;;23.34;51.38
42001;BME280;27689;48.390;10.856;2022-10-16T14:11:46;96395.09;;;23.26;52.02
42001;BME280;27689;48.390;10.856;2022-10-16T14:14:50;96400.03;;;23.23;53.77
42001;BME280;27689;48.390;10.856;2022-10-16T14:17:35;96401.94;;;23.15;54.30
42001;BME280;27689;48.390;10.856;2022-10-16T14:20:24;96402.22;;;23.07;54.13
42001;BME280;27689;48.390;10.856;2022-10-16T14:23:30;96406.97;;;23.05;54.90
42001;BME280;27689;48.390;10.856;2022-10-16T14:26:19;96414.03;;;23.00;56.05
42001;BME280;27689;48.390;10.856;2022-10-16T14:29:18;96402.56;;;22.93;54.99
42001;BME280;27689;48.390;10.856;2022-10-16T14:32:24;96404.81;;;22.89;55.38
42001;BME280;27689;48.390;10.856;2022-10-16T14:35:43;96411.06;;;22.83;56.04
42001;BME280;27689;48.390;10.856;2022-10-16T14:38:27;96402.44;;;22.74;55.64
42001;BME280;27689;48.390;10.856;2022-10-16T14:41:12;96404.50;;;22.72;56.21
42001;BME280;27689;48.390;10.856;2022-10-16T14:44:01;96397.97;;;22.68;56.02
42001;BME280;27689;48.390;10.856;2022-10-16T14:46:46;96408.66;;;22.68;56.23
42001;BME280;27689;48.390;10.856;2022-10-16T14:49:30;96411.16;;;22.63;56.42
42001;BME280;27689;48.390;10.856;2022-10-16T14:52:15;96413.22;;;22.61;56.77
42001;BME280;27689;48.390;10.856;2022-10-16T14:54:59;96411.16;;;22.57;57.95
42001;BME280;27689;48.390;10.856;2022-10-16T14:57:44;96418.63;;;22.48;59.64
42001;BME280;27689;48.390;10.856;2022-10-16T15:00:28;96418.03;;;22.46;58.58
42001;BME280;27689;48.390;10.856;2022-10-16T15:03:13;96405.75;;;22.38;59.43
42001;BME280;27689;48.390;10.856;2022-10-16T15:05:58;96419.94;;;22.32;59.47
42001;BME280;27689;48.390;10.856;2022-10-16T15:08:42;96416.25;;;22.27;59.58
42001;BME280;27689;48.390;10.856;2022-10-16T15:11:26;96414.44;;;22.21;59.94
42001;BME280;27689;48.390;10.856;2022-10-16T15:14:11;96415.09;;;22.16;60.77
42001;BME280;27689;48.390;10.856;2022-10-16T15:16:57;96419.81;;;22.14;63.19
42001;BME280;27689;48.390;10.856;2022-10-16T15:19:40;96416.97;;;22.02;64.28
42001;BME280;27689;48.390;10.856;2022-10-16T15:22:24;96419.25;;;21.92;64.36
42001;BME280;27689;48.390;10.856;2022-10-16T15:25:30;96422.97;;;21.85;64.40
42001;BME280;27689;48.390;10.856;2022-10-16T15:28:16;96419.28;;;21.79;64.81
42001;BME280;27689;48.390;10.856;2022-10-16T15:31:00;96429.97;;;21.79;65.07
42001;BME280;27689;48.390;10.856;2022-10-16T15:33:45;96423.81;;;21.72;66.08
42001;BME280;27689;48.390;10.856;2022-10-16T15:36:37;96427.94;;;21.61;67.31
42001;BME280;27689;48.390;10.856;2022-10-16T15:39:21;96421.19;;;21.52;67.57
42001;BME280;27689;48.390;10.856;2022-10-16T15:42:05;96427.34;;;21.46;67.59
42001;BME280;27689;48.390;10.856;2022-10-16T15:44:50;96429.00;;;21.34;68.39
42001;BME280;27689;48.390;10.856;2022-10-16T15:47:34;96427.56;;;21.25;68.68
42001;BME280;27689;48.390;10.856;2022-10-16T15:50:18;96424.88;;;21.11;69.53
42001;BME280;27689;48.390;10.856;2022-10-16T15:53:02;96425.50;;;21.07;69.72
42001;BME280;27689;48.390;10.856;2022-10-16T15:55:46;96423.03;;;20.92;70.86
42001;BME280;27689;48.390;10.856;2022-10-16T15:58:31;96433.66;;;20.79;71.57
42001;BME280;27689;48.390;10.856;2022-10-16T16:01:15;96433.66;;;20.79;71.59